Terminal Aerodrome Forecast
Issued by NWS Mt. Holly, NJ

Home | Current Version | Previous Version | Text Only | Print | Product List | Glossary On
Versions: 1 2 3 4 5 6 7 8 9 10 11 12
000
FTUS41 KPHI 272320
TAFABE
TAF
KABE 272320Z 2800/2824 10007KT P6SM VCSH OVC011
      TEMPO 2800/2804 6SM -DZ BR OVC009
     FM280400 08006KT 5SM -DZ BR OVC007
     FM281400 VRB03KT 6SM BR OVC007
     FM281600 20005KT P6SM BKN015
     FM282000 20005KT P6SM BKN040=

USA.gov is the U.S. government's official web portal to all federal, state and local government web resources and services.